Marietta, Washington
Current Conditions -  °F | °C
As of 5:53 PM on Sunday 21 Dec 2014 (Local Time) from KBLI Reporting Station
Clear Clear  
Wind Chill: 51°   Ceiling: Unl
Heat Index: 51°   Visibility: 10mi
Dew Point: 43°   Wind: 8mph
Humidity: 74%   Direction: 170°S
Pressure: 30"   Gusts: NA
Location:  48.7531°N, 122.502°W
Report Text: KBLI 220153Z 17007KT 10SM CLR 11/06 A3000 RMK AO2 SLP167 T01060061
Loading
Personal Weather Stations






























Interactive Weather Map New forecast layout! Learn more

10-Day Weather Forecast

Advertisements
Track Severe Weather on mobile